Time;durP1;ratioP1;P1;durP2;ratioP2;P2;SDS_P1;SDS_P2;PMS_P1;PMS_P2;Temp;Humidity;BMP_temperature;BMP_pressure;BME280_temperature;BME280_humidity;BME280_pressure;Samples;Min_cycle;Max_cycle;Signal;HPM_P1;HPM_P2
2023/02/19 00:01:36;;;;;;;4.70;1.67;;;9.90;99.90;;;;;;20490354;28;20031;-42
2023/02/19 00:11:38;;;;;;;3.72;1.52;;;9.90;99.90;;;;;;20479742;28;20043;-42
2023/02/19 00:21:40;;;;;;;4.68;1.60;;;9.90;99.90;;;;;;20474247;28;20042;-42
2023/02/19 00:31:41;;;;;;;7.03;2.17;;;9.80;99.90;;;;;;20473816;28;20474;-42
2023/02/19 00:41:44;;;;;;;4.65;2.10;;;9.90;99.90;;;;;;20473510;28;20039;-43
2023/02/19 00:51:46;;;;;;;5.00;1.67;;;9.90;99.90;;;;;;20480795;28;20073;-42
2023/02/19 01:01:48;;;;;;;5.63;1.70;;;10.00;99.90;;;;;;20474477;28;20054;-42
2023/02/19 01:11:49;;;;;;;4.00;2.50;;;10.00;99.90;;;;;;20478503;28;20042;-42
2023/02/19 01:21:50;;;;;;;3.60;1.60;;;10.10;99.90;;;;;;20478326;28;20042;-43
2023/02/19 01:31:51;;;;;;;5.95;1.60;;;9.90;99.90;;;;;;20478923;28;20058;-42
2023/02/19 01:41:52;;;;;;;5.35;2.25;;;9.90;99.90;;;;;;20486833;28;20497;-42
2023/02/19 01:51:59;;;;;;;4.68;1.83;;;9.80;99.90;;;;;;20488128;28;20444;-42
2023/02/19 02:02:00;;;;;;;6.97;2.33;;;9.70;99.90;;;;;;20484705;28;20047;-42
2023/02/19 02:12:01;;;;;;;2.72;1.23;;;9.70;99.90;;;;;;20477961;28;20144;-42
2023/02/19 02:22:08;;;;;;;7.70;1.90;;;9.60;99.90;;;;;;20481818;28;20035;-43
2023/02/19 02:32:14;;;;;;;5.60;1.80;;;9.70;99.90;;;;;;20480079;28;20256;-42
2023/02/19 02:42:27;;;;;;;25.90;3.25;;;9.70;99.90;;;;;;20483071;28;20212;-42
2023/02/19 03:02:49;;;;;;;7.03;1.77;;;9.70;99.90;;;;;;20484106;28;20429;-42
2023/02/19 03:23:16;;;;;;;4.60;1.45;;;9.70;99.90;;;;;;20488653;28;20664;-43
2023/02/19 03:43:44;;;;;;;6.05;2.35;;;9.50;99.90;;;;;;11126877;23;20087;-79
2023/02/19 03:53:57;;;;;;;4.13;2.05;;;9.70;99.90;;;;;;20426362;28;20046;-79
2023/02/19 04:04:36;;;;;;;5.68;2.90;;;9.60;99.90;;;;;;20445328;28;20044;-80
2023/02/19 04:14:39;;;;;;;6.88;1.95;;;9.60;99.90;;;;;;20539849;28;20039;-79
2023/02/19 04:24:46;;;;;;;3.72;1.77;;;9.60;99.90;;;;;;20510900;28;20031;-79
2023/02/19 04:34:47;;;;;;;36.23;3.00;;;9.60;99.90;;;;;;20596542;23;20409;-44
2023/02/19 04:44:48;;;;;;;5.25;2.08;;;9.50;99.90;;;;;;20870905;28;20052;-43
2023/02/19 04:54:50;;;;;;;5.78;1.67;;;9.50;99.90;;;;;;20880468;28;20036;-44
2023/02/19 05:04:51;;;;;;;10.30;3.58;;;9.50;99.90;;;;;;20893512;28;20191;-44
2023/02/19 05:14:52;;;;;;;5.28;1.83;;;9.60;99.90;;;;;;20892919;28;20744;-44
2023/02/19 05:24:53;;;;;;;3.28;1.63;;;9.70;99.90;;;;;;20898265;28;20052;-44
2023/02/19 05:34:54;;;;;;;5.80;2.17;;;9.70;99.90;;;;;;20904684;28;20052;-44
2023/02/19 05:44:55;;;;;;;5.05;1.52;;;9.70;99.90;;;;;;20899083;28;20049;-44
2023/02/19 05:54:56;;;;;;;5.07;1.33;;;9.60;99.90;;;;;;20890064;28;20406;-44
2023/02/19 06:04:57;;;;;;;2.53;1.17;;;9.60;99.90;;;;;;20895675;28;20060;-44
2023/02/19 06:14:58;;;;;;;4.10;1.98;;;9.50;99.90;;;;;;20883683;28;20048;-44
2023/02/19 06:24:59;;;;;;;5.50;2.08;;;9.60;99.90;;;;;;20888898;28;20503;-44
2023/02/19 06:35:00;;;;;;;8.95;2.33;;;9.30;99.90;;;;;;20888356;28;20402;-44
2023/02/19 06:45:02;;;;;;;3.22;1.33;;;9.30;99.90;;;;;;20901548;28;20041;-44
2023/02/19 06:55:03;;;;;;;3.65;1.55;;;9.20;99.90;;;;;;20890089;28;20049;-44
2023/02/19 07:05:04;;;;;;;4.30;2.30;;;9.30;99.90;;;;;;20879768;28;20045;-44
2023/02/19 07:15:06;;;;;;;4.13;1.33;;;9.30;99.90;;;;;;20886496;28;20051;-44
2023/02/19 07:25:07;;;;;;;4.85;1.95;;;9.20;99.90;;;;;;20884998;28;20431;-43
2023/02/19 07:35:08;;;;;;;7.22;1.95;;;9.10;99.90;;;;;;20891623;28;20056;-44
2023/02/19 07:45:09;;;;;;;4.93;2.13;;;9.10;99.90;;;;;;20876938;28;20067;-44
2023/02/19 07:55:10;;;;;;;3.97;1.92;;;9.10;99.90;;;;;;20870193;28;20582;-44
2023/02/19 08:05:12;;;;;;;5.47;1.95;;;9.10;99.90;;;;;;20873961;28;20072;-44
2023/02/19 08:15:13;;;;;;;7.50;1.55;;;9.10;99.90;;;;;;20861915;28;20036;-44
2023/02/19 08:25:14;;;;;;;3.90;1.75;;;9.10;99.90;;;;;;20868512;28;20052;-44
2023/02/19 08:35:15;;;;;;;5.18;2.65;;;9.20;99.90;;;;;;20876534;28;20048;-44
2023/02/19 08:45:16;;;;;;;4.95;2.17;;;9.10;99.90;;;;;;20853303;28;20052;-43
2023/02/19 08:55:18;;;;;;;8.70;2.63;;;9.20;99.90;;;;;;20871505;28;20435;-44
2023/02/19 09:05:19;;;;;;;5.43;2.70;;;9.30;99.90;;;;;;20895088;28;20044;-44
2023/02/19 09:15:20;;;;;;;7.82;2.70;;;9.20;99.90;;;;;;20840829;28;21648;-44
2023/02/19 09:25:21;;;;;;;21.05;3.58;;;9.50;99.90;;;;;;20861697;28;20418;-44
2023/02/19 09:35:22;;;;;;;3.42;1.83;;;9.40;99.90;;;;;;20873272;28;20057;-44
2023/02/19 09:45:25;;;;;;;5.60;2.58;;;9.50;99.90;;;;;;20869181;28;20049;-44
2023/02/19 09:55:35;;;;;;;6.47;2.28;;;9.50;99.90;;;;;;20863354;28;20045;-44
2023/02/19 10:05:38;;;;;;;3.35;1.70;;;9.60;99.90;;;;;;20866057;28;20396;-44
2023/02/19 10:15:47;;;;;;;10.57;1.73;;;9.50;99.90;;;;;;20866072;28;20040;-44
2023/02/19 10:25:55;;;;;;;2.85;1.35;;;9.60;99.90;;;;;;20881200;28;20056;-44
2023/02/19 10:36:05;;;;;;;1.67;0.82;;;9.60;99.90;;;;;;20893450;28;20053;-44
2023/02/19 10:46:20;;;;;;;1.45;0.60;;;9.60;99.90;;;;;;20882173;28;20644;-44
2023/02/19 10:56:28;;;;;;;0.88;0.30;;;9.50;99.90;;;;;;20888805;28;20036;-44
2023/02/19 11:06:29;;;;;;;1.35;0.50;;;9.50;99.90;;;;;;20899853;28;20044;-43
2023/02/19 11:16:58;;;;;;;0.95;0.60;;;9.10;99.90;;;;;;20865956;28;20123;-43
2023/02/19 11:27:05;;;;;;;1.17;0.40;;;8.60;99.90;;;;;;20873887;28;20045;-44
2023/02/19 11:37:14;;;;;;;1.23;0.77;;;8.50;99.90;;;;;;20883883;28;20524;-44
2023/02/19 11:47:39;;;;;;;1.75;1.38;;;8.50;99.90;;;;;;20889897;28;20087;-44
2023/02/19 11:57:54;;;;;;;2.50;1.00;;;8.40;99.90;;;;;;20849700;28;20519;-44
2023/02/19 12:08:07;;;;;;;1.92;0.65;;;8.40;99.90;;;;;;20871011;28;20515;-44
2023/02/19 12:18:32;;;;;;;1.45;0.80;;;8.40;99.90;;;;;;20863446;28;20041;-44
2023/02/19 12:29:06;;;;;;;2.72;1.10;;;8.50;99.90;;;;;;20869650;28;20049;-44
2023/02/19 12:39:45;;;;;;;2.90;0.93;;;8.30;99.90;;;;;;20874849;28;20231;-44
2023/02/19 12:50:02;;;;;;;1.45;0.70;;;8.10;99.90;;;;;;20854267;28;20655;-44
2023/02/19 13:00:12;;;;;;;2.30;0.82;;;8.10;99.90;;;;;;20867686;28;20045;-44
2023/02/19 13:10:38;;;;;;;1.17;0.68;;;8.10;99.90;;;;;;20874983;28;20458;-44
2023/02/19 13:20:42;;;;;;;1.10;0.40;;;8.00;99.90;;;;;;20867476;28;20033;-44
2023/02/19 13:31:04;;;;;;;1.52;0.40;;;8.00;99.90;;;;;;20879667;28;20045;-44
2023/02/19 13:41:15;;;;;;;0.88;0.60;;;8.00;99.90;;;;;;20879379;28;20040;-44
2023/02/19 13:51:22;;;;;;;1.10;0.47;;;7.80;99.90;;;;;;20886982;28;21170;-44
2023/02/19 14:01:48;;;;;;;1.00;0.38;;;7.80;99.90;;;;;;20880380;28;20044;-44
2023/02/19 14:11:49;;;;;;;0.35;0.20;;;7.70;99.90;;;;;;20883232;28;20045;-44
2023/02/19 14:21:50;;;;;;;1.08;0.20;;;7.70;99.90;;;;;;20886817;28;20392;-44
2023/02/19 14:31:52;;;;;;;0.50;0.17;;;7.60;99.90;;;;;;20879239;28;20052;-44
2023/02/19 14:42:04;;;;;;;1.67;0.98;;;7.50;99.90;;;;;;20874686;28;20048;-44
2023/02/19 14:52:11;;;;;;;0.65;0.28;;;7.50;99.90;;;;;;20893818;28;20488;-44
2023/02/19 15:02:15;;;;;;;;;;;7.50;99.90;;;;;;20889875;28;20040;-44
2023/02/19 15:12:22;;;;;;;11.80;0.90;;;7.60;99.90;;;;;;20891826;28;19931;-44
2023/02/19 15:22:27;;;;;;;3.00;1.40;;;7.50;99.90;;;;;;20885772;28;20057;-44
2023/02/19 15:32:28;;;;;;;0.90;0.50;;;7.40;99.90;;;;;;20892607;28;20526;-44
2023/02/19 15:42:31;;;;;;;5.68;1.27;;;7.50;99.90;;;;;;20897289;28;20060;-44
2023/02/19 15:52:37;;;;;;;2.38;0.80;;;7.40;99.90;;;;;;20897336;28;20044;-44
2023/02/19 16:02:39;;;;;;;2.03;1.05;;;7.40;99.90;;;;;;20895867;28;20238;-44
2023/02/19 16:12:40;;;;;;;1.60;0.68;;;7.40;99.90;;;;;;20892642;28;20041;-43
2023/02/19 16:22:41;;;;;;;0.52;0.30;;;7.50;99.90;;;;;;20890592;28;20045;-44
2023/02/19 16:32:44;;;;;;;0.63;0.30;;;7.50;99.90;;;;;;20893179;28;20045;-43
2023/02/19 16:42:48;;;;;;;0.75;0.40;;;7.40;99.90;;;;;;20895829;28;20152;-44
2023/02/19 16:52:53;;;;;;;1.63;0.30;;;7.40;72.60;;;;;;20894396;28;20063;-44
2023/02/19 17:02:57;;;;;;;1.55;0.73;;;7.40;80.60;;;;;;20906806;28;20071;-44
2023/02/19 17:12:59;;;;;;;0.63;0.15;;;7.30;79.60;;;;;;20909698;28;20051;-44
2023/02/19 17:23:00;;;;;;;0.35;0.20;;;7.30;76.00;;;;;;20908230;28;20236;-44
2023/02/19 17:33:01;;;;;;;0.77;0.20;;;7.30;69.60;;;;;;20895060;28;20480;-44
2023/02/19 17:43:02;;;;;;;0.70;0.50;;;7.20;61.90;;;;;;20903554;28;20037;-44
2023/02/19 17:53:03;;;;;;;1.40;0.40;;;7.20;52.10;;;;;;20890283;28;20045;-44
2023/02/19 18:03:06;;;;;;;1.58;0.40;;;7.10;59.90;;;;;;20898372;28;20040;-44
2023/02/19 18:13:08;;;;;;;1.48;0.10;;;7.10;63.20;;;;;;20883790;28;20045;-44
2023/02/19 18:23:10;;;;;;;0.30;0.20;;;7.00;74.60;;;;;;20890918;28;20037;-44
2023/02/19 18:33:12;;;;;;;0.80;0.30;;;6.90;86.40;;;;;;20901207;28;20052;-44
2023/02/19 18:43:13;;;;;;;2.35;0.85;;;6.70;91.70;;;;;;20890934;28;20036;-44
2023/02/19 18:53:14;;;;;;;1.58;0.60;;;6.60;99.90;;;;;;20893415;28;20041;-44
2023/02/19 19:03:15;;;;;;;0.85;0.32;;;6.50;99.90;;;;;;20888413;28;20044;-43
2023/02/19 19:13:16;;;;;;;3.90;0.80;;;6.50;99.90;;;;;;20881352;28;20263;-44
2023/02/19 19:23:17;;;;;;;1.48;0.80;;;6.30;99.90;;;;;;20873837;28;20036;-44
2023/02/19 19:33:18;;;;;;;2.08;0.70;;;6.30;99.90;;;;;;20877071;28;20523;-44
2023/02/19 19:43:19;;;;;;;1.63;0.90;;;6.20;99.90;;;;;;20881024;28;20060;-44
2023/02/19 19:53:20;;;;;;;2.08;0.93;;;6.20;99.90;;;;;;20868875;28;20515;-44
2023/02/19 20:03:21;;;;;;;2.22;1.02;;;6.10;99.90;;;;;;20879054;28;20452;-44
2023/02/19 20:13:25;;;;;;;1.95;1.08;;;6.00;99.90;;;;;;20883564;28;20059;-44
2023/02/19 20:23:26;;;;;;;3.42;2.15;;;6.00;99.90;;;;;;20859058;28;20044;-44
2023/02/19 20:33:27;;;;;;;3.45;1.77;;;6.00;99.90;;;;;;20860598;28;20415;-44
2023/02/19 20:43:28;;;;;;;5.25;1.95;;;5.90;99.90;;;;;;20888661;28;20040;-44
2023/02/19 20:53:30;;;;;;;2.38;1.33;;;5.80;99.90;;;;;;20884796;28;20063;-44
2023/02/19 21:03:32;;;;;;;2.58;1.45;;;5.90;99.90;;;;;;20881443;28;20276;-44
2023/02/19 21:13:34;;;;;;;2.78;2.15;;;5.80;99.90;;;;;;20864875;28;20374;-44
2023/02/19 21:23:35;;;;;;;7.82;1.77;;;5.80;99.90;;;;;;20884183;28;20032;-44
2023/02/19 21:33:36;;;;;;;3.00;1.45;;;5.80;99.90;;;;;;20887845;28;20044;-44
2023/02/19 21:43:37;;;;;;;2.90;1.27;;;5.80;99.90;;;;;;20886984;28;20051;-43
2023/02/19 21:53:38;;;;;;;5.05;1.50;;;5.80;99.90;;;;;;20886313;28;20055;-44
2023/02/19 22:03:39;;;;;;;3.50;1.48;;;5.80;99.90;;;;;;20898069;28;20052;-43
2023/02/19 22:13:40;;;;;;;2.83;1.95;;;5.80;99.90;;;;;;20896017;28;20072;-44
2023/02/19 22:23:46;;;;;;;3.63;2.20;;;5.80;99.90;;;;;;20885028;28;20173;-44
2023/02/19 22:33:47;;;;;;;4.97;2.50;;;5.80;99.90;;;;;;20885820;28;20530;-44
2023/02/19 22:43:49;;;;;;;4.70;2.42;;;5.80;99.90;;;;;;20870524;28;20041;-44
2023/02/19 22:53:52;;;;;;;4.43;2.13;;;5.70;99.90;;;;;;20867087;28;20049;-44
2023/02/19 23:03:55;;;;;;;3.88;2.00;;;5.80;99.90;;;;;;20864656;28;20048;-44
2023/02/19 23:13:57;;;;;;;6.35;3.42;;;5.80;99.90;;;;;;20862783;28;20044;-44
2023/02/19 23:23:58;;;;;;;6.93;3.00;;;5.90;99.90;;;;;;20860389;28;20439;-44
2023/02/19 23:33:59;;;;;;;7.30;3.08;;;5.90;99.90;;;;;;20869337;28;20083;-44
2023/02/19 23:44:00;;;;;;;8.35;3.65;;;6.00;99.90;;;;;;20870229;28;20048;-44
2023/02/19 23:54:01;;;;;;;7.63;4.75;;;6.10;99.90;;;;;;20867645;28;20056;-44
